Time;durP1;ratioP1;P1;durP2;ratioP2;P2;SDS_P1;SDS_P2;PMS_P1;PMS_P2;Temp;Humidity;BMP_temperature;BMP_pressure;BME280_temperature;BME280_humidity;BME280_pressure;Samples;Min_cycle;Max_cycle;Signal;HPM_P1;HPM_P2
2021/12/27 00:01:45;;;;;;;9.70;8.47;;;;;;;6.52;100.00;153034.91;5031591;28;20953;-76
2021/12/27 00:04:21;;;;;;;9.27;7.93;;;;;;;6.54;100.00;153040.13;5031546;28;20416;-76
2021/12/27 00:06:56;;;;;;;8.40;7.33;;;;;;;6.55;100.00;153042.66;5031286;28;20549;-76
2021/12/27 00:09:32;;;;;;;8.53;7.63;;;;;;;6.55;100.00;153042.66;5021431;28;20494;-76
2021/12/27 00:12:09;;;;;;;8.90;8.00;;;;;;;6.55;100.00;153042.66;5011762;28;20447;-76
2021/12/27 00:14:45;;;;;;;9.17;7.10;;;;;;;6.54;100.00;153041.38;5043190;28;20522;-77
2021/12/27 00:17:21;;;;;;;8.83;6.80;;;;;;;6.55;100.00;153042.66;5044917;28;20905;-76
2021/12/27 00:19:56;;;;;;;7.07;6.33;;;;;;;6.56;100.00;153046.56;5044708;28;20978;-76
2021/12/27 00:22:32;;;;;;;7.50;6.23;;;;;;;6.56;100.00;153045.25;5011579;28;20502;-77
2021/12/27 00:25:08;;;;;;;8.90;8.00;;;;;;;6.60;100.00;153056.88;5025862;28;20439;-76
2021/12/27 00:27:45;;;;;;;8.77;7.43;;;;;;;6.59;100.00;153054.28;5064543;28;20443;-76
2021/12/27 00:30:23;;;;;;;8.00;7.20;;;;;;;6.62;100.00;153060.72;5047395;28;20875;-77
2021/12/27 00:32:58;;;;;;;10.30;6.90;;;;;;;6.62;100.00;153060.72;5000144;28;20463;-76
2021/12/27 00:35:36;;;;;;;7.00;6.13;;;;;;;6.59;100.00;153054.28;5013082;28;20424;-76
2021/12/27 00:38:11;;;;;;;8.00;6.83;;;;;;;6.60;100.00;153056.88;5018317;28;20451;-77
2021/12/27 00:40:47;;;;;;;8.33;6.87;;;;;;;6.61;100.00;153058.16;5015538;28;20451;-76
2021/12/27 00:43:22;;;;;;;8.73;7.53;;;;;;;6.61;100.00;153058.16;5015286;28;21002;-76
2021/12/27 00:45:59;;;;;;;9.40;7.40;;;;;;;6.62;100.00;153060.72;5030810;28;20451;-77
2021/12/27 00:48:35;;;;;;;9.47;6.97;;;;;;;6.62;100.00;153062.03;5030787;28;20530;-77
2021/12/27 00:51:11;;;;;;;8.07;6.90;;;;;;;6.62;100.00;153060.72;5064039;28;20451;-76
2021/12/27 00:53:46;;;;;;;8.50;6.70;;;;;;;6.62;100.00;153062.03;5030573;28;20444;-76
2021/12/27 00:56:22;;;;;;;7.80;6.47;;;;;;;6.61;100.00;153058.16;5030345;28;20483;-76
2021/12/27 00:58:58;;;;;;;10.03;6.33;;;;;;;6.64;100.00;153065.91;5031769;28;20803;-76
2021/12/27 01:01:34;;;;;;;10.30;7.80;;;;;;;6.65;100.00;153068.47;5063825;28;20537;-76
2021/12/27 01:04:10;;;;;;;8.33;7.50;;;;;;;6.64;100.00;153065.91;5031748;28;20499;-76
2021/12/27 01:06:46;;;;;;;9.37;7.33;;;;;;;6.66;100.00;153071.06;5030785;28;20448;-76
2021/12/27 01:09:32;;;;;;;9.93;6.30;;;;;;;6.64;100.00;153065.91;5012784;28;20455;-76
2021/12/27 01:12:27;;;;;;;9.17;7.90;;;;;;;6.62;100.00;153060.72;5027388;28;20440;-76
2021/12/27 01:15:09;;;;;;;8.10;6.47;;;;;;;6.63;100.00;153063.31;5016664;28;20450;-76
2021/12/27 01:17:49;;;;;;;8.00;6.60;;;;;;;6.64;100.00;153067.22;5045684;28;20444;-76
2021/12/27 01:20:25;;;;;;;7.87;6.67;;;;;;;6.64;100.00;153067.22;5030001;28;20444;-76
2021/12/27 01:23:00;;;;;;;8.20;7.20;;;;;;;6.63;100.00;153064.63;5032788;28;20859;-76
2021/12/27 01:25:36;;;;;;;8.50;7.27;;;;;;;6.64;100.00;153065.91;5065523;28;20447;-76
2021/12/27 01:28:11;;;;;;;10.63;7.20;;;;;;;6.61;100.00;153058.16;5059369;28;20459;-76
2021/12/27 01:30:49;;;;;;;9.40;7.57;;;;;;;6.61;100.00;153058.16;5064783;28;21013;-76
2021/12/27 01:33:26;;;;;;;8.20;6.70;;;;;;;6.61;100.00;153059.47;5065655;28;20439;-76
2021/12/27 01:36:02;;;;;;;9.70;7.70;;;;;;;6.60;100.00;153055.56;5065652;28;20455;-76
2021/12/27 01:38:39;;;;;;;7.37;6.50;;;;;;;6.59;100.00;153053.00;5065647;28;20993;-76
2021/12/27 01:41:16;;;;;;;7.33;6.47;;;;;;;6.59;100.00;153053.00;5033583;28;20439;-76
2021/12/27 01:43:52;;;;;;;10.37;7.27;;;;;;;6.59;100.00;153053.00;5032004;28;20474;-76
2021/12/27 01:46:29;;;;;;;7.60;6.80;;;;;;;6.56;100.00;153045.25;5031985;28;20938;-76
2021/12/27 01:49:07;;;;;;;7.37;6.30;;;;;;;6.56;100.00;153046.56;5032250;28;20427;-76
2021/12/27 01:51:43;;;;;;;7.23;6.53;;;;;;;6.54;100.00;153041.38;5032147;28;20804;-76
2021/12/27 01:54:19;;;;;;;8.70;7.47;;;;;;;6.51;100.00;153033.63;5065638;28;20934;-76
2021/12/27 01:56:55;;;;;;;7.80;6.67;;;;;;;6.50;100.00;153031.06;5031578;28;20511;-76
2021/12/27 01:59:30;;;;;;;6.97;6.23;;;;;;;6.49;100.00;153027.16;5033077;28;20903;-76
2021/12/27 02:02:05;;;;;;;6.80;5.80;;;;;;;6.45;100.00;153018.16;5065198;28;20447;-76
2021/12/27 02:04:42;;;;;;;6.73;5.43;;;;;;;6.45;100.00;153016.88;5065098;28;20870;-76
2021/12/27 02:07:18;;;;;;;7.73;6.23;;;;;;;6.41;100.00;153006.53;5065138;28;20456;-76
2021/12/27 02:10:01;;;;;;;8.33;6.30;;;;;;;6.37;100.00;152996.22;5062481;28;20455;-76
2021/12/27 02:12:37;;;;;;;7.53;6.40;;;;;;;6.33;100.00;152985.91;5064577;28;20494;-76
2021/12/27 02:15:13;;;;;;;7.40;6.10;;;;;;;6.32;100.00;152983.31;5065339;28;20836;-76
2021/12/27 02:17:49;;;;;;;6.47;5.30;;;;;;;6.31;100.00;152980.72;5031825;28;20428;-76
2021/12/27 02:20:27;;;;;;;6.50;5.50;;;;;;;6.32;100.00;152983.31;5031068;28;20452;-76
2021/12/27 02:23:07;;;;;;;6.57;5.40;;;;;;;6.32;100.00;152983.31;5030117;28;20566;-76
2021/12/27 02:25:45;;;;;;;7.00;6.10;;;;;;;6.31;100.00;152980.72;5064777;28;20451;-76
2021/12/27 02:28:21;;;;;;;8.10;7.03;;;;;;;6.32;100.00;152983.31;5031231;28;20448;-76
2021/12/27 02:30:56;;;;;;;6.33;5.43;;;;;;;6.30;100.00;152978.16;5064222;28;20459;-76
2021/12/27 02:33:32;;;;;;;6.00;5.10;;;;;;;6.31;100.00;152980.72;5030976;28;20478;-76
2021/12/27 02:36:11;;;;;;;6.43;5.27;;;;;;;6.31;100.00;152980.72;5031791;28;20451;-76
2021/12/27 02:38:46;;;;;;;7.20;5.97;;;;;;;6.29;100.00;152975.56;5064878;28;20768;-76
2021/12/27 02:41:22;;;;;;;6.63;5.23;;;;;;;6.29;100.00;152975.56;5032491;28;20451;-76
2021/12/27 02:43:57;;;;;;;6.70;5.00;;;;;;;6.27;100.00;152970.41;5064396;28;20962;-76
2021/12/27 02:46:34;;;;;;;6.37;5.37;;;;;;;6.27;100.00;152970.41;5063888;28;20455;-76
2021/12/27 02:49:09;;;;;;;6.00;5.37;;;;;;;6.28;100.00;152972.97;5031379;28;20431;-76
2021/12/27 02:51:46;;;;;;;6.07;5.30;;;;;;;6.27;100.00;152970.41;5064869;28;20463;-76
2021/12/27 02:54:21;;;;;;;7.47;5.50;;;;;;;6.27;100.00;152971.72;5064410;28;20447;-76
2021/12/27 02:56:57;;;;;;;8.07;6.20;;;;;;;6.27;100.00;152970.41;5030302;28;20975;-76
2021/12/27 02:59:32;;;;;;;7.30;6.07;;;;;;;6.24;100.00;152963.97;5064571;28;20435;-76
2021/12/27 03:02:08;;;;;;;6.80;5.60;;;;;;;6.25;100.00;152965.28;5031013;28;20459;-76
2021/12/27 03:04:45;;;;;;;6.77;5.40;;;;;;;6.23;100.00;152960.06;5030322;28;20467;-76
2021/12/27 03:07:22;;;;;;;6.10;5.30;;;;;;;6.20;100.00;152952.31;5031303;28;20538;-76
2021/12/27 03:09:59;;;;;;;5.80;5.07;;;;;;;6.19;100.00;152951.06;5029700;28;20451;-76
2021/12/27 03:12:34;;;;;;;6.40;5.00;;;;;;;6.19;100.00;152949.78;5064185;28;20538;-76
2021/12/27 03:15:11;;;;;;;5.77;5.00;;;;;;;6.17;100.00;152945.88;5031415;28;20444;-76
2021/12/27 03:17:48;;;;;;;6.83;6.13;;;;;;;6.20;100.00;152952.31;5030542;28;20439;-76
2021/12/27 03:20:25;;;;;;;6.20;4.90;;;;;;;6.21;100.00;152954.94;5030373;28;20834;-76
2021/12/27 03:23:02;;;;;;;6.23;4.77;;;;;;;6.25;100.00;152965.28;5029971;28;20444;-76
2021/12/27 03:25:39;;;;;;;5.93;5.23;;;;;;;6.25;100.00;152965.28;5030470;28;20443;-76
2021/12/27 03:28:15;;;;;;;5.33;4.43;;;;;;;6.26;100.00;152967.81;5030453;28;20443;-75
2021/12/27 03:30:51;;;;;;;5.37;4.40;;;;;;;6.27;100.00;152970.41;5031870;28;20451;-75
2021/12/27 03:33:27;;;;;;;5.53;4.70;;;;;;;6.28;100.00;152974.28;5018757;28;20431;-75
2021/12/27 03:36:05;;;;;;;5.13;4.60;;;;;;;6.27;100.00;152970.41;5034649;28;20468;-75
2021/12/27 03:38:44;;;;;;;5.97;4.73;;;;;;;6.27;100.00;152970.41;5067826;28;20455;-75
2021/12/27 03:41:22;;;;;;;5.53;4.57;;;;;;;6.26;100.00;152969.13;5067985;28;20447;-76
2021/12/27 03:43:57;;;;;;;5.13;4.63;;;;;;;6.27;100.00;152971.72;5034454;28;20482;-76
2021/12/27 03:46:33;;;;;;;6.73;4.80;;;;;;;6.29;100.00;152976.88;5034574;28;20522;-76
2021/12/27 03:49:08;;;;;;;5.90;4.33;;;;;;;6.29;100.00;152975.56;5030058;28;20798;-76
2021/12/27 03:51:44;;;;;;;5.57;5.03;;;;;;;6.29;100.00;152975.56;5067787;28;20451;-76
2021/12/27 03:54:20;;;;;;;5.30;4.10;;;;;;;6.28;100.00;152972.97;5067545;28;20432;-76
2021/12/27 03:56:56;;;;;;;6.17;4.47;;;;;;;6.28;100.00;152974.28;5067578;28;20483;-76
2021/12/27 03:59:50;;;;;;;5.20;4.70;;;;;;;6.28;100.00;152974.28;5035358;28;20432;-76
2021/12/27 04:02:27;;;;;;;5.77;4.60;;;;;;;6.27;100.00;152970.41;5034110;28;20468;-76
2021/12/27 04:05:03;;;;;;;5.53;4.13;;;;;;;6.25;100.00;152965.28;5067183;28;20459;-76
2021/12/27 04:07:40;;;;;;;6.10;4.97;;;;;;;6.24;100.00;152962.66;5030619;28;20954;-76
2021/12/27 04:10:17;;;;;;;5.27;4.77;;;;;;;6.24;100.00;152962.66;5056673;28;20459;-76
2021/12/27 04:12:52;;;;;;;5.97;4.60;;;;;;;6.22;100.00;152958.81;5067098;28;20530;-76
2021/12/27 04:15:28;;;;;;;5.80;4.40;;;;;;;6.22;100.00;152957.53;5047065;28;20437;-76
2021/12/27 04:18:04;;;;;;;5.27;4.77;;;;;;;6.23;100.00;152960.06;5047353;28;20435;-76
2021/12/27 04:20:40;;;;;;;6.67;4.47;;;;;;;6.21;100.00;152956.22;5013862;28;20435;-76
2021/12/27 04:23:15;;;;;;;5.70;4.60;;;;;;;6.19;100.00;152951.06;5019968;28;20459;-76
2021/12/27 04:25:52;;;;;;;5.13;4.17;;;;;;;6.20;100.00;152952.31;5030476;28;20448;-76
2021/12/27 04:28:28;;;;;;;5.47;4.77;;;;;;;6.21;100.00;152954.94;5047052;28;20862;-76
2021/12/27 04:31:04;;;;;;;5.20;4.40;;;;;;;6.24;100.00;152962.66;5047143;28;20457;-75
2021/12/27 04:33:39;;;;;;;5.47;4.53;;;;;;;6.24;100.00;152962.66;5065894;28;20788;-76
2021/12/27 04:36:14;;;;;;;6.50;4.53;;;;;;;6.24;100.00;152963.97;5034985;28;20530;-76
2021/12/27 04:38:50;;;;;;;4.63;3.97;;;;;;;6.26;100.00;152969.13;5034236;28;20439;-76
2021/12/27 04:41:27;;;;;;;6.13;4.37;;;;;;;6.26;100.00;152967.81;5067043;28;20867;-76
2021/12/27 04:44:03;;;;;;;4.93;3.80;;;;;;;6.23;100.00;152960.06;5017655;28;20562;-76
2021/12/27 04:46:38;;;;;;;4.40;4.00;;;;;;;6.24;100.00;152963.97;5017454;28;20831;-76
2021/12/27 04:49:14;;;;;;;5.03;3.90;;;;;;;6.23;100.00;152961.38;5013462;28;20485;-76
2021/12/27 04:51:50;;;;;;;4.83;4.00;;;;;;;6.24;100.00;152962.66;5046867;28;20452;-76
2021/12/27 04:54:25;;;;;;;4.63;3.47;;;;;;;6.24;100.00;152963.97;5013549;28;20806;-76
2021/12/27 04:57:03;;;;;;;4.83;4.17;;;;;;;6.27;100.00;152970.41;5023210;28;20845;-76
2021/12/27 04:59:38;;;;;;;4.90;4.13;;;;;;;6.25;100.00;152965.28;5014616;28;20421;-76
2021/12/27 05:02:13;;;;;;;5.60;4.27;;;;;;;6.24;100.00;152962.66;5029962;28;20843;-76
2021/12/27 05:04:49;;;;;;;4.13;3.73;;;;;;;6.28;100.00;152972.97;5014398;28;20835;-76
2021/12/27 05:07:24;;;;;;;5.60;4.67;;;;;;;6.26;100.00;152969.13;5014915;28;20437;-76
2021/12/27 05:10:00;;;;;;;4.77;3.97;;;;;;;6.28;100.00;152972.97;5052969;28;20810;-76
2021/12/27 05:12:37;;;;;;;4.47;3.97;;;;;;;6.26;100.00;152967.81;5032341;28;20954;-76
2021/12/27 05:15:12;;;;;;;4.70;3.67;;;;;;;6.29;100.00;152975.56;5066410;28;20830;-76
2021/12/27 05:17:48;;;;;;;6.13;5.37;;;;;;;6.26;100.00;152969.13;5033039;28;20534;-76
2021/12/27 05:20:24;;;;;;;5.13;4.47;;;;;;;6.27;100.00;152971.72;5033874;28;20412;-76
2021/12/27 05:22:59;;;;;;;5.73;4.60;;;;;;;6.25;100.00;152966.53;5066134;28;20447;-76
2021/12/27 05:25:35;;;;;;;5.20;4.03;;;;;;;6.23;100.00;152960.06;5050112;28;20467;-76
2021/12/27 05:28:12;;;;;;;4.27;3.87;;;;;;;6.25;100.00;152965.28;5065895;28;20440;-76
2021/12/27 05:30:51;;;;;;;5.20;4.53;;;;;;;6.25;100.00;152965.28;5032535;28;20934;-76
2021/12/27 05:33:26;;;;;;;4.70;4.20;;;;;;;6.22;100.00;152958.81;5032886;28;20439;-76
2021/12/27 05:36:02;;;;;;;6.00;4.43;;;;;;;6.25;100.00;152965.28;5032675;28;20447;-76
2021/12/27 05:38:38;;;;;;;6.17;4.73;;;;;;;6.26;100.00;152967.81;5066151;28;20794;-76
2021/12/27 05:41:13;;;;;;;4.90;4.40;;;;;;;6.24;100.00;152962.66;5065621;28;20458;-76
2021/12/27 05:43:50;;;;;;;5.50;4.33;;;;;;;6.24;100.00;152962.66;5065551;28;20470;-76
2021/12/27 05:46:26;;;;;;;4.80;4.30;;;;;;;6.23;100.00;152960.06;5065146;28;20809;-76
2021/12/27 05:49:02;;;;;;;4.40;4.00;;;;;;;6.23;100.00;152960.06;5045920;28;20444;-76
2021/12/27 05:51:37;;;;;;;4.43;3.60;;;;;;;6.22;100.00;152958.81;5045877;28;20855;-76
2021/12/27 05:54:13;;;;;;;4.70;3.80;;;;;;;6.22;100.00;152957.53;4996948;28;20454;-76
2021/12/27 05:56:49;;;;;;;4.77;3.93;;;;;;;6.22;100.00;152957.53;5025268;28;20475;-76
2021/12/27 05:59:25;;;;;;;4.47;4.03;;;;;;;6.18;100.00;152947.19;5033333;28;20413;-76
2021/12/27 06:02:01;;;;;;;4.23;3.60;;;;;;;6.17;100.00;152944.63;5065143;28;20487;-76
2021/12/27 06:04:36;;;;;;;4.47;4.07;;;;;;;6.13;100.00;152936.88;5064392;28;20478;-76
2021/12/27 06:07:12;;;;;;;4.03;3.63;;;;;;;6.14;100.00;152939.44;5030105;28;20546;-76
2021/12/27 06:09:48;;;;;;;3.87;3.47;;;;;;;6.11;100.00;152931.72;5059482;28;20858;-76
2021/12/27 06:12:23;;;;;;;4.27;3.63;;;;;;;6.10;100.00;152929.13;5065298;28;20443;-76
2021/12/27 06:15:00;;;;;;;3.90;3.33;;;;;;;6.12;100.00;152932.97;5032973;28;20901;-76
2021/12/27 06:17:36;;;;;;;4.13;3.47;;;;;;;6.11;100.00;152931.72;5065052;28;20487;-76
2021/12/27 06:20:14;;;;;;;6.90;4.00;;;;;;;6.05;100.00;152916.25;5065194;28;20815;-76
2021/12/27 06:22:53;;;;;;;4.13;3.73;;;;;;;5.99;100.00;152900.75;5064053;28;20443;-76
2021/12/27 06:25:29;;;;;;;4.50;3.50;;;;;;;5.95;100.00;152890.44;5046017;28;20475;-75
2021/12/27 06:28:04;;;;;;;5.13;4.17;;;;;;;5.95;100.00;152889.16;5083173;28;20443;-76
2021/12/27 06:30:42;;;;;;;3.90;3.43;;;;;;;5.88;100.00;152872.34;5045704;28;20443;-76
2021/12/27 06:33:17;;;;;;;4.20;3.57;;;;;;;5.85;100.00;152863.38;5031136;28;20534;-76
2021/12/27 06:35:53;;;;;;;4.03;3.63;;;;;;;5.81;100.00;152854.28;5032522;28;20439;-76
2021/12/27 06:38:28;;;;;;;4.63;3.90;;;;;;;5.78;100.00;152845.22;5031894;28;20534;-76
2021/12/27 06:41:04;;;;;;;3.80;3.40;;;;;;;5.77;100.00;152843.94;5063917;28;20451;-76
2021/12/27 06:43:39;;;;;;;4.93;3.83;;;;;;;5.76;100.00;152840.06;5064073;28;20447;-75
2021/12/27 06:46:16;;;;;;;4.00;3.13;;;;;;;5.71;100.00;152827.19;5030026;28;20479;-76
2021/12/27 06:48:52;;;;;;;4.53;3.73;;;;;;;5.68;100.00;152820.75;5064692;28;20527;-75
2021/12/27 06:51:27;;;;;;;4.00;3.37;;;;;;;5.64;100.00;152810.41;5030693;28;20455;-76
2021/12/27 06:54:03;;;;;;;4.27;3.67;;;;;;;5.59;100.00;152797.50;5030679;28;20498;-76
2021/12/27 06:56:39;;;;;;;4.00;3.40;;;;;;;5.55;100.00;152787.22;5063715;28;20453;-76
2021/12/27 06:59:15;;;;;;;5.40;3.97;;;;;;;5.50;100.00;152774.31;5030870;28;20443;-76
2021/12/27 07:01:52;;;;;;;3.83;3.40;;;;;;;5.51;100.00;152776.88;5015562;28;20452;-75
2021/12/27 07:04:27;;;;;;;4.30;3.50;;;;;;;5.44;100.00;152758.84;5059706;28;20981;-75
2021/12/27 07:07:03;;;;;;;4.70;3.77;;;;;;;5.41;100.00;152752.41;5028962;28;20455;-76
2021/12/27 07:09:39;;;;;;;4.20;3.80;;;;;;;5.40;100.00;152748.56;5030205;28;20447;-75
2021/12/27 07:12:15;;;;;;;4.10;3.70;;;;;;;5.38;100.00;152744.66;5026353;28;20441;-75
2021/12/27 07:14:53;;;;;;;4.50;3.53;;;;;;;5.37;100.00;152740.81;5029859;28;20474;-76
2021/12/27 07:17:30;;;;;;;4.40;3.80;;;;;;;5.36;100.00;152738.22;5063198;28;20451;-75
2021/12/27 07:20:07;;;;;;;4.50;4.10;;;;;;;5.27;100.00;152716.28;5063276;28;20879;-75
2021/12/27 07:22:43;;;;;;;4.40;4.00;;;;;;;5.30;100.00;152722.72;5031887;28;20431;-76
2021/12/27 07:25:18;;;;;;;4.60;3.70;;;;;;;5.31;100.00;152725.31;5063280;28;20463;-75
2021/12/27 07:27:54;;;;;;;4.30;3.90;;;;;;;5.29;100.00;152721.47;5031972;28;20420;-75
2021/12/27 07:30:29;;;;;;;5.53;4.60;;;;;;;5.35;100.00;152735.63;5028838;28;20541;-76
2021/12/27 07:33:06;;;;;;;5.40;4.90;;;;;;;5.40;100.00;152748.56;5061788;28;20443;-76
2021/12/27 07:35:42;;;;;;;4.63;4.13;;;;;;;5.42;100.00;152753.69;5027299;28;20440;-76
2021/12/27 07:38:18;;;;;;;6.50;4.97;;;;;;;5.48;100.00;152769.19;5031209;28;20439;-76
2021/12/27 07:40:53;;;;;;;6.30;4.73;;;;;;;5.53;100.00;152782.06;5063658;28;20947;-76
2021/12/27 07:43:29;;;;;;;5.90;5.30;;;;;;;5.61;100.00;152802.72;5031491;28;20420;-76
2021/12/27 07:46:04;;;;;;;5.57;5.00;;;;;;;5.72;100.00;152829.78;5027038;28;20471;-76
2021/12/27 07:48:41;;;;;;;7.93;5.20;;;;;;;5.77;100.00;152843.94;5063161;28;20443;-76
2021/12/27 07:51:16;;;;;;;6.13;5.40;;;;;;;5.79;100.00;152849.13;5030207;28;20460;-76
2021/12/27 07:53:52;;;;;;;5.87;4.87;;;;;;;5.80;100.00;152851.66;5062727;28;20475;-76
2021/12/27 07:56:27;;;;;;;5.97;5.00;;;;;;;5.81;100.00;152854.28;5063007;28;20838;-76
2021/12/27 07:59:04;;;;;;;6.43;5.50;;;;;;;5.85;100.00;152863.38;5030268;28;20412;-76
2021/12/27 08:01:41;;;;;;;5.50;5.00;;;;;;;5.88;100.00;152872.34;5014862;28;20986;-76
2021/12/27 08:04:18;;;;;;;6.47;5.17;;;;;;;5.92;100.00;152882.69;5024110;28;20447;-76
2021/12/27 08:06:53;;;;;;;5.77;5.13;;;;;;;5.97;100.00;152895.59;5063383;28;20934;-76
2021/12/27 08:09:28;;;;;;;5.70;5.00;;;;;;;5.95;100.00;152890.44;5012828;28;20463;-76
2021/12/27 08:12:05;;;;;;;8.30;5.47;;;;;;;6.01;100.00;152905.88;5011667;28;20428;-76
2021/12/27 08:14:40;;;;;;;5.00;4.00;;;;;;;6.04;100.00;152912.34;5040939;28;20444;-76
2021/12/27 08:17:15;;;;;;;5.50;4.47;;;;;;;6.06;100.00;152917.53;5043565;28;20449;-76
2021/12/27 08:19:52;;;;;;;6.40;4.80;;;;;;;6.08;100.00;152923.97;5019188;28;20526;-76
2021/12/27 08:22:28;;;;;;;5.80;4.13;;;;;;;6.12;100.00;152934.28;5032296;28;20447;-76
2021/12/27 08:25:07;;;;;;;6.13;4.77;;;;;;;6.18;100.00;152947.19;5030521;28;20475;-76
2021/12/27 08:27:43;;;;;;;6.27;4.60;;;;;;;6.17;100.00;152944.63;5027215;28;20459;-76
2021/12/27 08:30:18;;;;;;;5.13;4.30;;;;;;;6.20;100.00;152952.31;5066643;28;20451;-76
2021/12/27 08:32:56;;;;;;;6.10;4.50;;;;;;;6.21;100.00;152954.94;5066543;28;20938;-76
2021/12/27 08:35:35;;;;;;;5.90;5.10;;;;;;;6.24;100.00;152962.66;5062665;28;20946;-76
2021/12/27 08:38:11;;;;;;;6.73;5.03;;;;;;;6.28;100.00;152974.28;5047706;28;20428;-75
2021/12/27 08:40:47;;;;;;;5.33;4.23;;;;;;;6.34;100.00;152989.78;5034900;28;20427;-76
2021/12/27 08:43:22;;;;;;;5.60;4.60;;;;;;;6.37;100.00;152997.53;5030187;28;20443;-76
2021/12/27 08:45:59;;;;;;;5.63;4.53;;;;;;;6.42;100.00;153009.13;5017927;28;20586;-76
2021/12/27 08:48:34;;;;;;;5.67;4.80;;;;;;;6.44;100.00;153015.56;5032690;28;20440;-76
2021/12/27 08:51:11;;;;;;;5.37;4.47;;;;;;;6.47;100.00;153022.00;5066092;28;20455;-76
2021/12/27 08:53:47;;;;;;;5.67;5.07;;;;;;;6.49;100.00;153027.16;5047484;28;20958;-76
2021/12/27 08:56:22;;;;;;;6.00;5.37;;;;;;;6.51;100.00;153032.38;5032035;28;20578;-76
2021/12/27 08:58:58;;;;;;;6.00;5.00;;;;;;;6.51;100.00;153033.63;5066115;28;20926;-76
2021/12/27 09:01:33;;;;;;;5.90;5.23;;;;;;;6.52;100.00;153034.91;5032902;28;20452;-76
2021/12/27 09:04:09;;;;;;;5.87;5.27;;;;;;;6.55;100.00;153042.66;5065710;28;20439;-76
2021/12/27 09:06:46;;;;;;;6.30;4.70;;;;;;;6.58;100.00;153050.41;5065100;28;20620;-76
2021/12/27 09:09:21;;;;;;;5.47;4.43;;;;;;;6.56;100.00;153045.25;5061976;28;20451;-76
2021/12/27 09:11:57;;;;;;;7.30;6.20;;;;;;;6.59;100.00;153053.00;5066128;28;20850;-76
2021/12/27 09:14:33;;;;;;;6.10;5.50;;;;;;;6.63;100.00;153064.63;5064727;28;20462;-76
2021/12/27 09:17:08;;;;;;;6.20;5.20;;;;;;;6.65;100.00;153068.47;5028736;28;20444;-75
2021/12/27 09:19:44;;;;;;;7.30;5.20;;;;;;;6.66;100.00;153072.38;5029019;28;20443;-76
2021/12/27 09:22:21;;;;;;;6.40;5.37;;;;;;;6.66;100.00;153072.38;5013733;28;20491;-76
2021/12/27 09:24:56;;;;;;;5.60;4.80;;;;;;;6.72;100.00;153087.81;5030565;28;20467;-75
2021/12/27 09:27:32;;;;;;;5.20;4.60;;;;;;;6.74;100.00;153091.72;5060137;28;20799;-75
2021/12/27 09:30:09;;;;;;;7.73;4.90;;;;;;;6.77;100.00;153099.47;5076405;28;20455;-76
2021/12/27 09:32:45;;;;;;;5.90;4.90;;;;;;;6.81;100.00;153109.78;5065434;28;20443;-76
2021/12/27 09:35:20;;;;;;;6.17;5.03;;;;;;;6.82;100.00;153112.38;5031918;28;20432;-75
2021/12/27 09:37:57;;;;;;;5.33;4.83;;;;;;;6.83;100.00;153114.94;5013361;28;20432;-76
2021/12/27 09:40:33;;;;;;;7.60;5.37;;;;;;;6.78;100.00;153102.03;5044180;28;20448;-76
2021/12/27 09:43:09;;;;;;;6.70;5.30;;;;;;;6.77;100.00;153099.47;5048504;28;20439;-75
2021/12/27 09:45:44;;;;;;;6.27;5.67;;;;;;;6.82;100.00;153112.38;5034665;28;20569;-76
2021/12/27 09:48:20;;;;;;;7.43;5.63;;;;;;;6.84;100.00;153117.53;5027336;28;20477;-76
2021/12/27 09:50:57;;;;;;;5.80;5.20;;;;;;;6.85;100.00;153120.13;5031407;28;20439;-75
2021/12/27 09:53:34;;;;;;;6.40;5.70;;;;;;;6.84;100.00;153117.53;5031053;28;20914;-76
2021/12/27 09:56:11;;;;;;;6.63;5.97;;;;;;;6.88;100.00;153127.88;5030870;28;20538;-76
2021/12/27 09:58:47;;;;;;;8.23;6.10;;;;;;;6.90;100.00;153133.03;5064242;28;20984;-76
2021/12/27 10:01:22;;;;;;;6.07;4.50;;;;;;;6.94;100.00;153143.34;5030753;28;20443;-76
2021/12/27 10:04:00;;;;;;;6.47;5.70;;;;;;;6.97;100.00;153151.09;5030725;28;20436;-76
2021/12/27 10:06:35;;;;;;;5.93;5.40;;;;;;;6.97;100.00;153151.09;5029547;28;20511;-76
2021/12/27 10:09:12;;;;;;;6.33;5.30;;;;;;;6.99;100.00;153155.00;5048304;28;20443;-76
2021/12/27 10:11:48;;;;;;;7.13;6.43;;;;;;;7.03;100.00;153166.59;5062912;28;20845;-76
2021/12/27 10:14:24;;;;;;;7.73;6.20;;;;;;;7.09;100.00;153180.81;5052324;28;20440;-76
2021/12/27 10:17:08;;;;;;;7.73;6.13;;;;;;;7.32;100.00;153240.19;5021082;28;20805;-76
2021/12/27 10:19:43;;;;;;;6.20;5.60;;;;;;;7.29;100.00;153233.72;5039203;28;20456;-76
2021/12/27 10:22:20;;;;;;;9.20;6.57;;;;;;;7.37;100.00;153253.09;5062339;28;20447;-76
2021/12/27 10:24:57;;;;;;;7.67;5.80;;;;;;;7.35;100.00;153249.25;5014141;28;20466;-76
2021/12/27 10:27:34;;;;;;;6.87;6.13;;;;;;;7.41;100.00;153263.44;5043765;28;20453;-75
2021/12/27 10:30:11;;;;;;;7.53;6.43;;;;;;;7.53;100.00;153294.44;5067809;28;20446;-76
2021/12/27 10:33:03;;;;;;;7.40;6.10;;;;;;;7.55;100.00;153298.28;5022286;28;20448;-76
2021/12/27 10:35:40;;;;;;;7.70;6.60;;;;;;;7.58;100.00;153306.03;5057595;28;20448;-75
2021/12/27 10:38:21;;;;;;;6.80;5.13;;;;;;;7.69;100.00;153334.47;5028979;28;20542;-76
2021/12/27 10:40:59;;;;;;;5.23;4.57;;;;;;;7.72;100.00;153342.22;5054912;28;20446;-76
2021/12/27 10:43:39;;;;;;;5.80;5.20;;;;;;;7.73;100.00;153344.81;5017743;28;20440;-75
2021/12/27 10:46:16;;;;;;;5.97;4.80;;;;;;;7.73;100.00;153344.81;5061103;28;20479;-76
2021/12/27 10:48:55;;;;;;;5.23;4.73;;;;;;;7.73;100.00;153344.81;5014827;28;20482;-76
2021/12/27 10:51:31;;;;;;;5.70;4.80;;;;;;;7.73;100.00;153344.81;5029212;28;20475;-76
2021/12/27 10:54:09;;;;;;;5.73;4.70;;;;;;;7.79;100.00;153360.28;5063393;28;20443;-76
2021/12/27 10:56:54;;;;;;;5.23;4.73;;;;;;;7.77;100.00;153356.44;5056226;28;20471;-76
2021/12/27 10:59:30;;;;;;;5.83;4.70;;;;;;;7.89;100.00;153386.13;5025013;28;20670;-75
2021/12/27 11:02:10;;;;;;;5.20;4.70;;;;;;;7.95;100.00;153401.63;5020980;28;20555;-76
2021/12/27 11:04:46;;;;;;;6.70;4.83;;;;;;;7.97;100.00;153406.78;5038648;28;20895;-76
2021/12/27 11:07:21;;;;;;;9.80;5.37;;;;;;;7.96;100.00;153404.22;5028247;28;20474;-75
2021/12/27 11:09:57;;;;;;;7.07;5.77;;;;;;;7.98;100.00;153409.41;5062577;28;20447;-76
2021/12/27 11:12:34;;;;;;;7.53;5.60;;;;;;;8.03;100.00;153422.31;5030435;28;20451;-75
2021/12/27 11:15:11;;;;;;;5.97;5.47;;;;;;;7.92;100.00;153393.88;5063023;28;20829;-76
2021/12/27 11:17:47;;;;;;;5.40;4.70;;;;;;;7.97;100.00;153406.78;5049384;28;20452;-75
2021/12/27 11:20:23;;;;;;;5.47;4.70;;;;;;;7.94;100.00;153399.09;5034228;28;20434;-75
2021/12/27 11:23:01;;;;;;;5.73;5.00;;;;;;;7.93;100.00;153396.47;5065045;28;20443;-75
2021/12/27 11:25:38;;;;;;;6.57;4.97;;;;;;;7.92;100.00;153393.88;5063253;28;20462;-76
2021/12/27 11:28:29;;;;;;;6.00;5.07;;;;;;;7.95;100.00;153402.94;5029691;28;20443;-75
2021/12/27 11:31:08;;;;;;;6.10;5.40;;;;;;;7.93;100.00;153396.47;5062883;28;20529;-75
2021/12/27 11:33:55;;;;;;;5.50;4.93;;;;;;;7.89;100.00;153387.41;5029099;28;20535;-75
2021/12/27 11:36:32;;;;;;;5.93;5.33;;;;;;;7.94;100.00;153400.34;5010481;28;20939;-76
2021/12/27 11:39:19;;;;;;;6.63;5.90;;;;;;;7.92;100.00;153393.88;5044725;28;20475;-76
2021/12/27 11:42:00;;;;;;;6.93;5.77;;;;;;;7.98;100.00;153409.41;5056804;28;20461;-76
2021/12/27 11:44:39;;;;;;;6.50;5.50;;;;;;;7.94;100.00;153400.34;5035566;28;20507;-76
2021/12/27 11:47:23;;;;;;;7.80;5.90;;;;;;;7.95;100.00;153401.63;5030948;28;20549;-76
2021/12/27 11:50:02;;;;;;;7.43;6.50;;;;;;;8.19;100.00;153462.38;5028948;28;20546;-76
2021/12/27 11:52:40;;;;;;;6.87;6.10;;;;;;;8.20;100.00;153466.28;5003665;28;20444;-76
2021/12/27 11:55:20;;;;;;;6.80;5.97;;;;;;;8.14;100.00;153449.44;5034818;28;20456;-76
2021/12/27 11:57:58;;;;;;;7.17;5.87;;;;;;;8.16;100.00;153454.59;5014189;28;20510;-76
2021/12/27 12:00:39;;;;;;;8.10;5.80;;;;;;;8.18;100.00;153459.81;5015376;28;20461;-76
2021/12/27 12:03:22;;;;;;;8.67;6.20;;;;;;;8.35;100.00;153503.78;5029028;28;20486;-76
2021/12/27 12:05:57;;;;;;;7.23;5.90;;;;;;;8.43;100.00;153525.75;5040256;28;20467;-76
2021/12/27 12:08:49;;;;;;;6.47;5.50;;;;;;;8.38;100.00;153511.53;5060522;28;20947;-75